Aviation Digital Data Service (ADDS)

Output produced by METARs form (0817 UTC 20 March 2019)
found at http://www.aviationweather.gov/metar/data/
 
Forecast for: ZHHH (WUHAN/NANHU , CN)
Text: TAF ZHHH 200258Z 2006/2106 32004MPS 4000 BR SCT020 TX21/2007Z TN12/2022Z
Forecast period: 0600 to 2200 UTC 20 March 2019
Forecast type: FROM: standard forecast or significant change
Winds: from the NW (320 degrees) at 9 MPH (8 knots; 4.1 m/s)
Visibility: 2.49 miles (4.01 km)
Ceiling: at least 12,000 feet AGL
Clouds: scattered clouds at 2000 feet AGL
Weather: BR  (mist)
Text: BECMG 2022/2023 3000 -RA BR
Forecast period: 2200 UTC 20 March 2019 to 0600 UTC 21 March 2019
Forecast type: BECOMING: Conditions expected to become as follows by 2300 UTC 20 March 2019
Winds: from the NW (320 degrees) at 9 MPH (8 knots; 4.1 m/s)
Visibility: 1.86 miles (2.99 km)
Ceiling: at least 12,000 feet AGL
Clouds: scattered clouds at 2000 feet AGL
Weather: -RA BR  (light rain, mist)
Text: TEMPO 2008/2012 2800 SHRA BR SCT008 FEW030CB OVC040
Forecast period: 0800 to 1200 UTC 20 March 2019
Forecast type: TEMPORARY: The following changes expected for less than half the time period
Visibility: 1.74 miles (2.80 km)
Ceiling: 4000 feet AGL
Clouds: scattered clouds at 800 feet AGL
few clouds at 3000 feet AGL
overcast cloud deck at 4000 feet AGL
Weather: SHRA BR  (rain showers, mist)